Saint Albans, New York
Current Conditions -  °F | °C
As of 7:51 PM on Tuesday 21 Oct 2014 (Local Time) from KJFK Reporting Station
Scattered Clouds Scattered Clouds  
Wind Chill: 58°   Ceiling: Unl
Heat Index: 58°   Visibility: 10mi
Dew Point: 51°   Wind: 8mph
Humidity: 78%   Direction: 10°N
Pressure: 29.88"   Gusts: NA
Location:  40.7°N, 73.76°W
Report Text: KJFK 212351Z 01007KT 10SM FEW020 SCT035 SCT140 14/11 A2988 RMK AO2 SLP117 OCNL LTGIC DSNT NW CB DSNT NW 60003 T01440106 10178 20144 53015
Loading
Personal Weather Stations






























Interactive Weather Map
Tropical Storm Tracking
New forecast layout! Learn more

10-Day Weather Forecast

Advertisements
Track Severe Weather on mobile